sensor_id;sensor_type;location;lat;lon;timestamp;pressure;altitude;pressure_sealevel;temperature;humidity
60240;BME280;46102;39.012;-7.064;2022-11-20T00:00:27;99342.78;;;10.78;92.48
60240;BME280;46102;39.012;-7.064;2022-11-20T00:02:28;99338.50;;;10.72;92.61
60240;BME280;46102;39.012;-7.064;2022-11-20T00:04:28;99343.78;;;10.68;93.29
60240;BME280;46102;39.012;-7.064;2022-11-20T00:06:29;99335.53;;;10.68;93.05
60240;BME280;46102;39.012;-7.064;2022-11-20T00:08:30;99352.72;;;10.74;92.89
60240;BME280;46102;39.012;-7.064;2022-11-20T00:10:31;99353.03;;;10.72;92.76
60240;BME280;46102;39.012;-7.064;2022-11-20T00:12:31;99352.81;;;10.69;92.75
60240;BME280;46102;39.012;-7.064;2022-11-20T00:14:32;99357.19;;;10.70;93.01
60240;BME280;46102;39.012;-7.064;2022-11-20T00:16:33;99352.81;;;10.69;93.04
60240;BME280;46102;39.012;-7.064;2022-11-20T00:18:34;99352.00;;;10.68;92.78
60240;BME280;46102;39.012;-7.064;2022-11-20T00:20:35;99355.56;;;10.69;92.78
60240;BME280;46102;39.012;-7.064;2022-11-20T00:22:35;99354.50;;;10.65;92.72
60240;BME280;46102;39.012;-7.064;2022-11-20T00:24:36;99360.38;;;10.58;93.35
60240;BME280;46102;39.012;-7.064;2022-11-20T00:26:37;99362.03;;;10.59;93.30
60240;BME280;46102;39.012;-7.064;2022-11-20T00:28:38;99370.25;;;10.59;93.37
60240;BME280;46102;39.012;-7.064;2022-11-20T00:30:39;99360.38;;;10.58;93.51
60240;BME280;46102;39.012;-7.064;2022-11-20T00:32:39;99354.31;;;10.61;93.48
60240;BME280;46102;39.012;-7.064;2022-11-20T00:34:40;99361.59;;;10.52;93.81
60240;BME280;46102;39.012;-7.064;2022-11-20T00:36:41;99363.81;;;10.50;94.21
60240;BME280;46102;39.012;-7.064;2022-11-20T00:38:42;99365.13;;;10.52;94.14
60240;BME280;46102;39.012;-7.064;2022-11-20T00:40:43;99357.63;;;10.58;94.33
60240;BME280;46102;39.012;-7.064;2022-11-20T00:42:44;99363.06;;;10.63;93.79
60240;BME280;46102;39.012;-7.064;2022-11-20T00:44:45;99364.97;;;10.62;94.05
60240;BME280;46102;39.012;-7.064;2022-11-20T00:46:46;99352.38;;;10.61;94.30
60240;BME280;46102;39.012;-7.064;2022-11-20T00:48:46;99356.81;;;10.57;94.45
60240;BME280;46102;39.012;-7.064;2022-11-20T00:50:47;99354.31;;;10.61;94.43
60240;BME280;46102;39.012;-7.064;2022-11-20T00:52:48;99354.88;;;10.58;94.55
60240;BME280;46102;39.012;-7.064;2022-11-20T00:54:48;99354.31;;;10.61;94.65
60240;BME280;46102;39.012;-7.064;2022-11-20T00:56:49;99359.84;;;10.56;94.70
60240;BME280;46102;39.012;-7.064;2022-11-20T00:58:50;99355.94;;;10.62;94.65
60240;BME280;46102;39.012;-7.064;2022-11-20T01:00:51;99364.84;;;10.54;94.89
60240;BME280;46102;39.012;-7.064;2022-11-20T01:02:51;99359.66;;;10.52;95.03
60240;BME280;46102;39.012;-7.064;2022-11-20T01:04:52;99356.69;;;10.49;95.36
60240;BME280;46102;39.012;-7.064;2022-11-20T01:06:53;99353.13;;;10.48;95.25
60240;BME280;46102;39.012;-7.064;2022-11-20T01:08:56;99342.91;;;10.54;95.09
60240;BME280;46102;39.012;-7.064;2022-11-20T01:11:02;99337.91;;;10.56;94.21
60240;BME280;46102;39.012;-7.064;2022-11-20T01:13:03;99340.44;;;10.52;94.36
60240;BME280;46102;39.012;-7.064;2022-11-20T01:15:22;99349.78;;;10.51;94.60
60240;BME280;46102;39.012;-7.064;2022-11-20T01:17:23;99346.81;;;10.48;95.08
60240;BME280;46102;39.012;-7.064;2022-11-20T01:19:24;99337.56;;;10.44;95.22
60240;BME280;46102;39.012;-7.064;2022-11-20T01:21:28;99326.22;;;10.50;94.87
60240;BME280;46102;39.012;-7.064;2022-11-20T01:23:32;99318.59;;;10.47;95.10
60240;BME280;46102;39.012;-7.064;2022-11-20T01:25:34;99319.97;;;10.45;95.27
60240;BME280;46102;39.012;-7.064;2022-11-20T01:27:34;99316.38;;;10.49;95.39
60240;BME280;46102;39.012;-7.064;2022-11-20T01:29:35;99314.72;;;10.48;95.22
60240;BME280;46102;39.012;-7.064;2022-11-20T01:31:37;99318.59;;;10.47;95.67
60240;BME280;46102;39.012;-7.064;2022-11-20T01:33:38;99332.31;;;10.47;95.78
60240;BME280;46102;39.012;-7.064;2022-11-20T01:35:39;99329.84;;;10.46;95.91
60240;BME280;46102;39.012;-7.064;2022-11-20T01:37:40;99333.91;;;10.48;95.90
60240;BME280;46102;39.012;-7.064;2022-11-20T01:39:40;99347.34;;;10.50;96.02
60240;BME280;46102;39.012;-7.064;2022-11-20T01:41:42;99342.66;;;10.50;95.92
60240;BME280;46102;39.012;-7.064;2022-11-20T01:44:02;99345.41;;;10.50;96.05
60240;BME280;46102;39.012;-7.064;2022-11-20T01:46:19;99335.56;;;10.49;95.94
60240;BME280;46102;39.012;-7.064;2022-11-20T01:48:20;99346.53;;;10.49;96.05
60240;BME280;46102;39.012;-7.064;2022-11-20T01:50:26;99335.47;;;10.54;95.81
60240;BME280;46102;39.012;-7.064;2022-11-20T01:52:39;99332.72;;;10.54;96.08
60240;BME280;46102;39.012;-7.064;2022-11-20T01:54:50;99336.38;;;10.50;96.28
60240;BME280;46102;39.012;-7.064;2022-11-20T01:56:55;99326.44;;;10.54;96.25
60240;BME280;46102;39.012;-7.064;2022-11-20T01:58:59;99327.25;;;10.54;96.25
60240;BME280;46102;39.012;-7.064;2022-11-20T02:01:02;99326.50;;;10.49;96.46
60240;BME280;46102;39.012;-7.064;2022-11-20T02:03:07;99327.81;;;10.51;96.47
60240;BME280;46102;39.012;-7.064;2022-11-20T02:05:36;99332.66;;;10.59;96.03
60240;BME280;46102;39.012;-7.064;2022-11-20T02:07:39;99328.34;;;10.53;96.08
60240;BME280;46102;39.012;-7.064;2022-11-20T02:09:40;99331.09;;;10.53;96.38
60240;BME280;46102;39.012;-7.064;2022-11-20T02:11:40;99333.91;;;10.48;96.41
60240;BME280;46102;39.012;-7.064;2022-11-20T02:13:41;99350.91;;;10.50;96.37
60240;BME280;46102;39.012;-7.064;2022-11-20T02:15:45;99354.31;;;10.42;96.76
60240;BME280;46102;39.012;-7.064;2022-11-20T02:17:48;99352.88;;;10.45;96.77
60240;BME280;46102;39.012;-7.064;2022-11-20T02:19:48;99352.88;;;10.45;96.63
60240;BME280;46102;39.012;-7.064;2022-11-20T02:26:10;99360.03;;;10.46;97.33
60240;BME280;46102;39.012;-7.064;2022-11-20T02:28:12;99368.50;;;10.49;97.12
60240;BME280;46102;39.012;-7.064;2022-11-20T02:30:13;99364.00;;;10.53;97.02
60240;BME280;46102;39.012;-7.064;2022-11-20T02:34:22;99360.59;;;10.61;96.43
60240;BME280;46102;39.012;-7.064;2022-11-20T02:36:25;99370.97;;;10.65;96.37
60240;BME280;46102;39.012;-7.064;2022-11-20T02:38:27;99363.50;;;10.70;96.01
60240;BME280;46102;39.012;-7.064;2022-11-20T02:40:28;99358.59;;;10.67;96.19
60240;BME280;46102;39.012;-7.064;2022-11-20T02:42:29;99356.06;;;10.71;96.14
60240;BME280;46102;39.012;-7.064;2022-11-20T02:44:30;99359.34;;;10.73;96.07
60240;BME280;46102;39.012;-7.064;2022-11-20T02:46:31;99361.19;;;10.77;95.76
60240;BME280;46102;39.012;-7.064;2022-11-20T02:48:33;99360.06;;;10.78;95.66
60240;BME280;46102;39.012;-7.064;2022-11-20T02:50:37;99359.75;;;10.80;95.66
60240;BME280;46102;39.012;-7.064;2022-11-20T02:52:38;99359.25;;;10.78;95.70
60240;BME280;46102;39.012;-7.064;2022-11-20T02:54:39;99360.06;;;10.78;95.71
60240;BME280;46102;39.012;-7.064;2022-11-20T02:56:40;99359.25;;;10.78;95.78
60240;BME280;46102;39.012;-7.064;2022-11-20T02:58:40;99355.59;;;10.82;95.80
60240;BME280;46102;39.012;-7.064;2022-11-20T03:00:41;99361.03;;;10.88;95.17
60240;BME280;46102;39.012;-7.064;2022-11-20T03:02:42;99358.34;;;10.82;95.39
60240;BME280;46102;39.012;-7.064;2022-11-20T03:04:43;99355.59;;;10.82;95.20
60240;BME280;46102;39.012;-7.064;2022-11-20T03:06:43;99358.34;;;10.82;95.61
60240;BME280;46102;39.012;-7.064;2022-11-20T03:08:44;99353.38;;;10.84;95.73
60240;BME280;46102;39.012;-7.064;2022-11-20T03:10:45;99348.22;;;10.83;95.79
60240;BME280;46102;39.012;-7.064;2022-11-20T03:12:46;99340.25;;;10.81;96.20
60240;BME280;46102;39.012;-7.064;2022-11-20T03:14:47;99340.78;;;10.83;96.28
60240;BME280;46102;39.012;-7.064;2022-11-20T03:16:47;99339.13;;;10.82;96.54
60240;BME280;46102;39.012;-7.064;2022-11-20T03:18:49;99329.00;;;10.83;96.53
60240;BME280;46102;39.012;-7.064;2022-11-20T03:20:50;99337.22;;;10.83;96.77
60240;BME280;46102;39.012;-7.064;2022-11-20T03:22:50;99339.28;;;10.91;96.48
60240;BME280;46102;39.012;-7.064;2022-11-20T03:24:51;99334.06;;;10.90;96.28
60240;BME280;46102;39.012;-7.064;2022-11-20T03:26:52;99323.41;;;10.88;96.53
60240;BME280;46102;39.012;-7.064;2022-11-20T03:28:58;99320.34;;;10.90;96.64
60240;BME280;46102;39.012;-7.064;2022-11-20T03:31:05;99330.00;;;10.87;96.74
60240;BME280;46102;39.012;-7.064;2022-11-20T03:33:06;99330.84;;;10.88;97.07
60240;BME280;46102;39.012;-7.064;2022-11-20T03:35:07;99335.72;;;10.91;97.13
60240;BME280;46102;39.012;-7.064;2022-11-20T03:37:08;99331.41;;;10.84;97.31
60240;BME280;46102;39.012;-7.064;2022-11-20T03:39:09;99328.47;;;10.81;97.68
60240;BME280;46102;39.012;-7.064;2022-11-20T03:41:19;99327.88;;;10.84;97.74
60240;BME280;46102;39.012;-7.064;2022-11-20T03:43:20;99327.06;;;10.83;97.86
60240;BME280;46102;39.012;-7.064;2022-11-20T03:45:20;99314.03;;;10.89;97.73
60240;BME280;46102;39.012;-7.064;2022-11-20T03:47:21;99324.50;;;10.87;97.62
60240;BME280;46102;39.012;-7.064;2022-11-20T03:49:22;99320.44;;;10.84;97.81
60240;BME280;46102;39.012;-7.064;2022-11-20T03:51:25;99316.88;;;10.84;98.42
60240;BME280;46102;39.012;-7.064;2022-11-20T03:53:26;99313.91;;;10.80;98.26
60240;BME280;46102;39.012;-7.064;2022-11-20T03:55:26;99310.34;;;10.80;98.68
60240;BME280;46102;39.012;-7.064;2022-11-20T03:57:27;99317.78;;;10.79;98.44
60240;BME280;46102;39.012;-7.064;2022-11-20T03:59:28;99308.66;;;10.84;98.22
60240;BME280;46102;39.012;-7.064;2022-11-20T04:01:34;99305.69;;;10.80;98.39
60240;BME280;46102;39.012;-7.064;2022-11-20T04:03:36;99311.41;;;10.84;98.45
60240;BME280;46102;39.012;-7.064;2022-11-20T04:05:37;99314.94;;;10.84;98.43
60240;BME280;46102;39.012;-7.064;2022-11-20T04:07:38;99313.25;;;10.89;98.38
60240;BME280;46102;39.012;-7.064;2022-11-20T04:09:39;99313.97;;;10.94;98.38
60240;BME280;46102;39.012;-7.064;2022-11-20T04:11:40;99317.91;;;10.88;98.58
60240;BME280;46102;39.012;-7.064;2022-11-20T04:13:41;99319.03;;;10.87;98.73
60240;BME280;46102;39.012;-7.064;2022-11-20T04:15:42;99314.78;;;10.95;98.85
60240;BME280;46102;39.012;-7.064;2022-11-20T04:17:43;99314.56;;;10.91;98.78
60240;BME280;46102;39.012;-7.064;2022-11-20T04:19:44;99317.13;;;10.88;99.18
60240;BME280;46102;39.012;-7.064;2022-11-20T04:21:45;99319.84;;;10.88;99.27
60240;BME280;46102;39.012;-7.064;2022-11-20T04:23:45;99324.59;;;10.82;99.61
60240;BME280;46102;39.012;-7.064;2022-11-20T04:25:46;99329.19;;;10.87;99.83
60240;BME280;46102;39.012;-7.064;2022-11-20T04:27:47;99322.38;;;10.84;100.00
60240;BME280;46102;39.012;-7.064;2022-11-20T04:29:47;99324.00;;;10.85;100.00
60240;BME280;46102;39.012;-7.064;2022-11-20T04:31:48;99322.50;;;10.93;100.00
60240;BME280;46102;39.012;-7.064;2022-11-20T04:33:49;99318.63;;;10.94;100.00
60240;BME280;46102;39.012;-7.064;2022-11-20T04:35:50;99317.44;;;11.00;100.00
60240;BME280;46102;39.012;-7.064;2022-11-20T04:37:52;99313.38;;;10.97;100.00
60240;BME280;46102;39.012;-7.064;2022-11-20T04:39:52;99314.41;;;11.01;100.00
60240;BME280;46102;39.012;-7.064;2022-11-20T04:41:53;99318.06;;;10.97;100.00
60240;BME280;46102;39.012;-7.064;2022-11-20T04:44:14;99315.50;;;11.00;100.00
60240;BME280;46102;39.012;-7.064;2022-11-20T04:46:15;99314.06;;;11.03;100.00
60240;BME280;46102;39.012;-7.064;2022-11-20T04:48:16;99292.84;;;11.09;100.00
60240;BME280;46102;39.012;-7.064;2022-11-20T04:50:17;99298.84;;;11.11;100.00
60240;BME280;46102;39.012;-7.064;2022-11-20T04:52:18;99304.84;;;11.13;100.00
60240;BME280;46102;39.012;-7.064;2022-11-20T04:54:18;99302.41;;;11.11;100.00
60240;BME280;46102;39.012;-7.064;2022-11-20T04:56:20;99308.72;;;11.12;100.00
60240;BME280;46102;39.012;-7.064;2022-11-20T04:58:22;99314.13;;;11.17;100.00
60240;BME280;46102;39.012;-7.064;2022-11-20T05:00:22;99324.28;;;11.16;100.00
60240;BME280;46102;39.012;-7.064;2022-11-20T05:02:23;99323.47;;;11.16;100.00
60240;BME280;46102;39.012;-7.064;2022-11-20T05:04:24;99325.41;;;11.15;100.00
60240;BME280;46102;39.012;-7.064;2022-11-20T05:06:24;99319.00;;;11.20;100.00
60240;BME280;46102;39.012;-7.064;2022-11-20T05:08:25;99313.72;;;11.23;100.00
60240;BME280;46102;39.012;-7.064;2022-11-20T05:10:26;99306.50;;;11.28;100.00
60240;BME280;46102;39.012;-7.064;2022-11-20T05:12:27;99307.09;;;11.24;100.00
60240;BME280;46102;39.012;-7.064;2022-11-20T05:14:29;99318.72;;;11.21;100.00
60240;BME280;46102;39.012;-7.064;2022-11-20T05:16:29;99325.31;;;11.20;100.00
60240;BME280;46102;39.012;-7.064;2022-11-20T05:18:30;99321.13;;;11.23;100.00
60240;BME280;46102;39.012;-7.064;2022-11-20T05:20:31;99319.19;;;11.23;100.00
60240;BME280;46102;39.012;-7.064;2022-11-20T05:22:32;99321.94;;;11.23;100.00
60240;BME280;46102;39.012;-7.064;2022-11-20T05:24:32;99314.25;;;11.39;100.00
60240;BME280;46102;39.012;-7.064;2022-11-20T05:26:33;99317.31;;;11.38;100.00
60240;BME280;46102;39.012;-7.064;2022-11-20T05:28:34;99338.47;;;11.37;100.00
60240;BME280;46102;39.012;-7.064;2022-11-20T05:30:35;99337.22;;;11.30;100.00
60240;BME280;46102;39.012;-7.064;2022-11-20T05:32:35;99326.56;;;11.28;100.00
60240;BME280;46102;39.012;-7.064;2022-11-20T05:34:36;99329.50;;;11.32;100.00
60240;BME280;46102;39.012;-7.064;2022-11-20T05:36:37;99326.56;;;11.28;100.00
60240;BME280;46102;39.012;-7.064;2022-11-20T05:38:38;99332.84;;;11.29;100.00
60240;BME280;46102;39.012;-7.064;2022-11-20T05:40:38;99331.53;;;11.26;100.00
60240;BME280;46102;39.012;-7.064;2022-11-20T05:42:39;99336.13;;;11.31;100.00
60240;BME280;46102;39.012;-7.064;2022-11-20T05:44:40;99324.81;;;11.32;100.00
60240;BME280;46102;39.012;-7.064;2022-11-20T05:46:40;99332.75;;;11.34;100.00
60240;BME280;46102;39.012;-7.064;2022-11-20T05:48:43;99328.41;;;11.33;100.00
60240;BME280;46102;39.012;-7.064;2022-11-20T05:50:44;99334.59;;;11.38;100.00
60240;BME280;46102;39.012;-7.064;2022-11-20T05:52:44;99326.06;;;11.40;100.00
60240;BME280;46102;39.012;-7.064;2022-11-20T05:54:45;99337.31;;;11.24;99.35
60240;BME280;46102;39.012;-7.064;2022-11-20T05:56:46;99340.84;;;11.11;98.07
60240;BME280;46102;39.012;-7.064;2022-11-20T05:58:47;99343.31;;;11.13;97.69
60240;BME280;46102;39.012;-7.064;2022-11-20T06:00:48;99344.00;;;11.04;97.91
60240;BME280;46102;39.012;-7.064;2022-11-20T06:02:49;99338.28;;;11.01;98.20
60240;BME280;46102;39.012;-7.064;2022-11-20T06:04:50;99336.13;;;10.98;99.16
60240;BME280;46102;39.012;-7.064;2022-11-20T06:06:50;99339.88;;;10.88;100.00
60240;BME280;46102;39.012;-7.064;2022-11-20T06:08:51;99339.88;;;10.88;100.00
60240;BME280;46102;39.012;-7.064;2022-11-20T06:10:52;99348.69;;;10.85;100.00
60240;BME280;46102;39.012;-7.064;2022-11-20T06:12:52;99351.38;;;10.90;100.00
60240;BME280;46102;39.012;-7.064;2022-11-20T06:14:53;99346.94;;;10.94;100.00
60240;BME280;46102;39.012;-7.064;2022-11-20T06:16:54;99350.16;;;10.96;100.00
60240;BME280;46102;39.012;-7.064;2022-11-20T06:18:55;99354.06;;;11.09;100.00
60240;BME280;46102;39.012;-7.064;2022-11-20T06:21:00;99345.72;;;11.14;100.00
60240;BME280;46102;39.012;-7.064;2022-11-20T06:23:01;99353.44;;;11.12;100.00
60240;BME280;46102;39.012;-7.064;2022-11-20T06:25:02;99348.41;;;11.19;100.00
60240;BME280;46102;39.012;-7.064;2022-11-20T06:27:03;99354.41;;;11.21;100.00
60240;BME280;46102;39.012;-7.064;2022-11-20T06:29:03;99359.53;;;11.28;100.00
60240;BME280;46102;39.012;-7.064;2022-11-20T06:31:05;99359.91;;;11.21;100.00
60240;BME280;46102;39.012;-7.064;2022-11-20T06:33:06;99364.03;;;11.19;100.00
60240;BME280;46102;39.012;-7.064;2022-11-20T06:35:07;99367.94;;;11.18;100.00
60240;BME280;46102;39.012;-7.064;2022-11-20T06:37:08;99362.03;;;11.24;100.00
60240;BME280;46102;39.012;-7.064;2022-11-20T06:39:09;99365.59;;;11.25;100.00
60240;BME280;46102;39.012;-7.064;2022-11-20T06:41:12;99356.56;;;11.24;100.00
60240;BME280;46102;39.012;-7.064;2022-11-20T06:43:13;99353.69;;;11.30;100.00
60240;BME280;46102;39.012;-7.064;2022-11-20T06:45:14;99363.25;;;11.32;100.00
60240;BME280;46102;39.012;-7.064;2022-11-20T06:47:14;99349.53;;;11.32;100.00
60240;BME280;46102;39.012;-7.064;2022-11-20T06:49:15;99354.13;;;11.37;100.00
60240;BME280;46102;39.012;-7.064;2022-11-20T06:51:16;99362.19;;;11.47;100.00
60240;BME280;46102;39.012;-7.064;2022-11-20T06:53:17;99362.47;;;11.45;100.00
60240;BME280;46102;39.012;-7.064;2022-11-20T06:55:18;99372.16;;;11.43;100.00
60240;BME280;46102;39.012;-7.064;2022-11-20T06:57:19;99364.94;;;11.47;100.00
60240;BME280;46102;39.012;-7.064;2022-11-20T06:59:20;99379.47;;;11.48;100.00
60240;BME280;46102;39.012;-7.064;2022-11-20T07:01:21;99373.16;;;11.47;100.00
60240;BME280;46102;39.012;-7.064;2022-11-20T07:03:22;99377.47;;;11.53;100.00
60240;BME280;46102;39.012;-7.064;2022-11-20T07:05:23;99380.41;;;11.57;100.00
60240;BME280;46102;39.012;-7.064;2022-11-20T07:07:23;99379.59;;;11.56;100.00
60240;BME280;46102;39.012;-7.064;2022-11-20T07:09:24;99376.03;;;11.56;100.00
60240;BME280;46102;39.012;-7.064;2022-11-20T07:11:25;99379.59;;;11.56;100.00
60240;BME280;46102;39.012;-7.064;2022-11-20T07:13:26;99371.56;;;11.60;100.00
60240;BME280;46102;39.012;-7.064;2022-11-20T07:15:27;99383.66;;;11.59;100.00
60240;BME280;46102;39.012;-7.064;2022-11-20T07:17:28;99386.41;;;11.59;100.00
60240;BME280;46102;39.012;-7.064;2022-11-20T07:19:29;99387.22;;;11.59;100.00
60240;BME280;46102;39.012;-7.064;2022-11-20T07:21:30;99388.56;;;11.62;100.00
60240;BME280;46102;39.012;-7.064;2022-11-20T07:23:30;99385.50;;;11.63;100.00
60240;BME280;46102;39.012;-7.064;2022-11-20T07:25:31;99384.91;;;11.66;100.00
60240;BME280;46102;39.012;-7.064;2022-11-20T07:27:32;99395.28;;;11.70;100.00
60240;BME280;46102;39.012;-7.064;2022-11-20T07:29:32;99393.56;;;11.74;100.00
60240;BME280;46102;39.012;-7.064;2022-11-20T07:31:33;99385.94;;;11.84;100.00
60240;BME280;46102;39.012;-7.064;2022-11-20T07:33:34;99392.47;;;11.88;100.00
60240;BME280;46102;39.012;-7.064;2022-11-20T07:35:35;99394.19;;;11.84;100.00
60240;BME280;46102;39.012;-7.064;2022-11-20T07:37:36;99390.00;;;11.87;100.00
60240;BME280;46102;39.012;-7.064;2022-11-20T07:39:37;99395.44;;;11.92;100.00
60240;BME280;46102;39.012;-7.064;2022-11-20T07:41:38;99396.22;;;11.93;100.00
60240;BME280;46102;39.012;-7.064;2022-11-20T07:43:38;99399.50;;;11.95;100.00
60240;BME280;46102;39.012;-7.064;2022-11-20T07:45:39;99412.63;;;11.98;100.00
60240;BME280;46102;39.012;-7.064;2022-11-20T07:47:40;99411.41;;;12.04;100.00
60240;BME280;46102;39.012;-7.064;2022-11-20T07:49:41;99402.16;;;12.14;100.00
60240;BME280;46102;39.012;-7.064;2022-11-20T07:51:41;99413.97;;;12.14;100.00
60240;BME280;46102;39.012;-7.064;2022-11-20T07:53:42;99418.84;;;12.17;100.00
60240;BME280;46102;39.012;-7.064;2022-11-20T07:55:43;99420.97;;;12.20;100.00
60240;BME280;46102;39.012;-7.064;2022-11-20T07:57:43;99421.19;;;12.24;100.00
60240;BME280;46102;39.012;-7.064;2022-11-20T07:59:44;99432.19;;;12.24;100.00
60240;BME280;46102;39.012;-7.064;2022-11-20T08:01:46;99432.06;;;12.29;99.67
60240;BME280;46102;39.012;-7.064;2022-11-20T08:03:47;99433.50;;;12.26;100.00
60240;BME280;46102;39.012;-7.064;2022-11-20T08:05:47;99438.50;;;12.24;100.00
60240;BME280;46102;39.012;-7.064;2022-11-20T08:07:48;99447.25;;;12.26;100.00
60240;BME280;46102;39.012;-7.064;2022-11-20T08:09:49;99452.47;;;12.28;100.00
60240;BME280;46102;39.012;-7.064;2022-11-20T08:11:49;99459.59;;;12.29;100.00
60240;BME280;46102;39.012;-7.064;2022-11-20T08:14:09;99464.66;;;12.36;100.00
60240;BME280;46102;39.012;-7.064;2022-11-20T08:16:12;99460.50;;;12.38;100.00
60240;BME280;46102;39.012;-7.064;2022-11-20T08:18:13;99456.34;;;12.41;100.00
60240;BME280;46102;39.012;-7.064;2022-11-20T08:20:14;99462.34;;;12.43;99.71
60240;BME280;46102;39.012;-7.064;2022-11-20T08:22:15;99468.84;;;12.47;99.78
60240;BME280;46102;39.012;-7.064;2022-11-20T08:24:16;99472.09;;;12.49;100.00
60240;BME280;46102;39.012;-7.064;2022-11-20T08:26:17;99470.06;;;12.55;100.00
60240;BME280;46102;39.012;-7.064;2022-11-20T08:28:18;99467.19;;;12.60;99.52
60240;BME280;46102;39.012;-7.064;2022-11-20T08:30:18;99466.50;;;12.68;98.87
60240;BME280;46102;39.012;-7.064;2022-11-20T08:32:19;99463.09;;;12.71;97.32
60240;BME280;46102;39.012;-7.064;2022-11-20T08:34:20;99471.88;;;12.73;97.04
60240;BME280;46102;39.012;-7.064;2022-11-20T08:36:22;99470.13;;;12.77;97.28
60240;BME280;46102;39.012;-7.064;2022-11-20T08:38:23;99471.97;;;12.82;95.80
60240;BME280;46102;39.012;-7.064;2022-11-20T08:40:25;99466.53;;;12.90;95.27
60240;BME280;46102;39.012;-7.064;2022-11-20T08:42:26;99454.88;;;12.94;94.79
60240;BME280;46102;39.012;-7.064;2022-11-20T08:44:27;99470.19;;;13.00;93.56
60240;BME280;46102;39.012;-7.064;2022-11-20T08:46:32;99481.06;;;13.05;93.76
60240;BME280;46102;39.012;-7.064;2022-11-20T08:48:34;99477.38;;;13.09;93.72
60240;BME280;46102;39.012;-7.064;2022-11-20T08:50:34;99479.56;;;13.21;93.13
60240;BME280;46102;39.012;-7.064;2022-11-20T08:52:36;99478.06;;;13.29;92.75
60240;BME280;46102;39.012;-7.064;2022-11-20T08:54:37;99487.19;;;13.38;92.33
60240;BME280;46102;39.012;-7.064;2022-11-20T08:56:37;99491.34;;;13.49;91.66
60240;BME280;46102;39.012;-7.064;2022-11-20T08:58:39;99492.19;;;13.59;90.63
60240;BME280;46102;39.012;-7.064;2022-11-20T09:00:39;99495.97;;;13.63;89.67
60240;BME280;46102;39.012;-7.064;2022-11-20T09:02:40;99509.91;;;13.66;89.21
60240;BME280;46102;39.012;-7.064;2022-11-20T09:04:41;99511.19;;;13.60;89.96
60240;BME280;46102;39.012;-7.064;2022-11-20T09:06:41;99510.34;;;13.60;89.67
60240;BME280;46102;39.012;-7.064;2022-11-20T09:08:42;99511.81;;;13.57;90.41
60240;BME280;46102;39.012;-7.064;2022-11-20T09:10:43;99513.19;;;13.68;89.41
60240;BME280;46102;39.012;-7.064;2022-11-20T09:12:44;99522.72;;;13.62;90.29
60240;BME280;46102;39.012;-7.064;2022-11-20T09:14:44;99525.50;;;13.71;89.99
60240;BME280;46102;39.012;-7.064;2022-11-20T09:16:45;99519.91;;;13.76;90.08
60240;BME280;46102;39.012;-7.064;2022-11-20T09:18:49;99527.53;;;13.79;88.96
60240;BME280;46102;39.012;-7.064;2022-11-20T09:20:50;99524.13;;;13.82;89.23
60240;BME280;46102;39.012;-7.064;2022-11-20T09:22:51;99523.06;;;13.92;88.28
60240;BME280;46102;39.012;-7.064;2022-11-20T09:24:52;99537.47;;;13.89;88.29
60240;BME280;46102;39.012;-7.064;2022-11-20T09:26:53;99540.38;;;13.84;88.75
60240;BME280;46102;39.012;-7.064;2022-11-20T09:28:54;99538.47;;;13.93;89.13
60240;BME280;46102;39.012;-7.064;2022-11-20T09:30:56;99532.66;;;13.94;88.61
60240;BME280;46102;39.012;-7.064;2022-11-20T09:32:56;99542.69;;;13.90;88.65
60240;BME280;46102;39.012;-7.064;2022-11-20T09:34:57;99543.31;;;13.87;88.79
60240;BME280;46102;39.012;-7.064;2022-11-20T09:36:58;99541.06;;;13.89;88.84
60240;BME280;46102;39.012;-7.064;2022-11-20T09:38:59;99537.38;;;13.94;88.88
60240;BME280;46102;39.012;-7.064;2022-11-20T09:41:04;99533.00;;;14.02;87.78
60240;BME280;46102;39.012;-7.064;2022-11-20T09:43:13;99533.38;;;14.09;87.44
60240;BME280;46102;39.012;-7.064;2022-11-20T09:54:27;99543.34;;;14.27;86.01
60240;BME280;46102;39.012;-7.064;2022-11-20T09:56:28;99545.44;;;14.22;86.44
60240;BME280;46102;39.012;-7.064;2022-11-20T09:58:37;99546.16;;;14.36;84.93
60240;BME280;46102;39.012;-7.064;2022-11-20T10:00:40;99539.63;;;14.32;84.97
60240;BME280;46102;39.012;-7.064;2022-11-20T10:03:03;99548.72;;;14.24;85.72
60240;BME280;46102;39.012;-7.064;2022-11-20T10:05:10;99547.25;;;14.26;86.12
60240;BME280;46102;39.012;-7.064;2022-11-20T10:07:17;99552.28;;;14.24;86.01
60240;BME280;46102;39.012;-7.064;2022-11-20T10:20:48;99567.22;;;14.32;86.34
60240;BME280;46102;39.012;-7.064;2022-11-20T10:23:23;99570.09;;;14.49;85.76
60240;BME280;46102;39.012;-7.064;2022-11-20T10:27:52;99560.59;;;14.64;83.79
60240;BME280;46102;39.012;-7.064;2022-11-20T10:32:17;99561.59;;;14.68;84.04
60240;BME280;46102;39.012;-7.064;2022-11-20T10:34:24;99564.38;;;14.86;82.21
60240;BME280;46102;39.012;-7.064;2022-11-20T10:36:36;99553.78;;;14.79;82.18
60240;BME280;46102;39.012;-7.064;2022-11-20T10:38:43;99560.50;;;14.87;82.51
60240;BME280;46102;39.012;-7.064;2022-11-20T10:40:48;99563.94;;;15.01;82.09
60240;BME280;46102;39.012;-7.064;2022-11-20T10:42:57;99555.66;;;15.18;80.94
60240;BME280;46102;39.012;-7.064;2022-11-20T10:45:16;99554.53;;;15.28;79.76
60240;BME280;46102;39.012;-7.064;2022-11-20T10:47:20;99565.78;;;15.32;79.20
60240;BME280;46102;39.012;-7.064;2022-11-20T10:49:21;99569.66;;;15.39;78.10
60240;BME280;46102;39.012;-7.064;2022-11-20T10:51:47;99573.59;;;15.38;77.16
60240;BME280;46102;39.012;-7.064;2022-11-20T10:56:20;99573.22;;;15.40;77.85
60240;BME280;46102;39.012;-7.064;2022-11-20T11:00:34;99575.38;;;15.43;78.42
60240;BME280;46102;39.012;-7.064;2022-11-20T11:02:41;99575.88;;;15.45;77.62
60240;BME280;46102;39.012;-7.064;2022-11-20T11:04:45;99566.41;;;15.37;77.75
60240;BME280;46102;39.012;-7.064;2022-11-20T11:06:48;99562.03;;;15.28;77.85
60240;BME280;46102;39.012;-7.064;2022-11-20T11:08:51;99573.72;;;15.25;78.62
60240;BME280;46102;39.012;-7.064;2022-11-20T11:11:07;99570.63;;;15.17;79.52